sensor_id;sensor_type;location;lat;lon;timestamp;P1;durP1;ratioP1;P2;durP2;ratioP2
9188;SDS011;34313;50.780;6.084;2023-04-07T00:00:10;19.33;;;12.37;;
9188;SDS011;34313;50.780;6.084;2023-04-07T00:02:36;19.03;;;12.43;;
9188;SDS011;34313;50.780;6.084;2023-04-07T00:05:01;17.30;;;12.60;;
9188;SDS011;34313;50.780;6.084;2023-04-07T00:07:27;16.87;;;11.60;;
9188;SDS011;34313;50.780;6.084;2023-04-07T00:09:52;17.70;;;12.43;;
9188;SDS011;34313;50.780;6.084;2023-04-07T00:12:17;20.47;;;12.40;;
9188;SDS011;34313;50.780;6.084;2023-04-07T00:14:43;19.77;;;13.23;;
9188;SDS011;34313;50.780;6.084;2023-04-07T00:17:08;16.70;;;12.13;;
9188;SDS011;34313;50.780;6.084;2023-04-07T00:19:33;16.27;;;11.60;;
9188;SDS011;34313;50.780;6.084;2023-04-07T00:21:59;16.60;;;11.70;;
9188;SDS011;34313;50.780;6.084;2023-04-07T00:24:25;17.10;;;11.73;;
9188;SDS011;34313;50.780;6.084;2023-04-07T00:26:51;15.90;;;11.43;;
9188;SDS011;34313;50.780;6.084;2023-04-07T00:29:16;16.73;;;11.80;;
9188;SDS011;34313;50.780;6.084;2023-04-07T00:31:41;17.30;;;11.93;;
9188;SDS011;34313;50.780;6.084;2023-04-07T00:34:07;16.40;;;11.93;;
9188;SDS011;34313;50.780;6.084;2023-04-07T00:36:32;20.33;;;11.60;;
9188;SDS011;34313;50.780;6.084;2023-04-07T00:38:57;18.13;;;11.17;;
9188;SDS011;34313;50.780;6.084;2023-04-07T00:41:23;17.30;;;11.47;;
9188;SDS011;34313;50.780;6.084;2023-04-07T00:43:49;17.23;;;11.87;;
9188;SDS011;34313;50.780;6.084;2023-04-07T00:46:15;20.33;;;11.23;;
9188;SDS011;34313;50.780;6.084;2023-04-07T00:48:41;22.67;;;13.57;;
9188;SDS011;34313;50.780;6.084;2023-04-07T00:51:07;24.43;;;14.87;;
9188;SDS011;34313;50.780;6.084;2023-04-07T00:53:33;22.33;;;13.70;;
9188;SDS011;34313;50.780;6.084;2023-04-07T00:55:58;24.13;;;14.73;;
9188;SDS011;34313;50.780;6.084;2023-04-07T00:58:23;35.47;;;17.03;;
9188;SDS011;34313;50.780;6.084;2023-04-07T01:01:06;24.97;;;15.50;;
9188;SDS011;34313;50.780;6.084;2023-04-07T01:03:43;30.97;;;17.77;;
9188;SDS011;34313;50.780;6.084;2023-04-07T01:06:13;29.43;;;18.17;;
9188;SDS011;34313;50.780;6.084;2023-04-07T01:08:45;32.70;;;19.37;;
9188;SDS011;34313;50.780;6.084;2023-04-07T01:11:15;32.80;;;19.43;;
9188;SDS011;34313;50.780;6.084;2023-04-07T01:13:49;30.30;;;18.53;;
9188;SDS011;34313;50.780;6.084;2023-04-07T01:21:51;43.63;;;22.50;;
9188;SDS011;34313;50.780;6.084;2023-04-07T01:30:07;44.43;;;25.50;;
9188;SDS011;34313;50.780;6.084;2023-04-07T01:32:36;49.33;;;25.63;;
9188;SDS011;34313;50.780;6.084;2023-04-07T01:35:03;41.30;;;24.60;;
9188;SDS011;34313;50.780;6.084;2023-04-07T01:37:33;41.07;;;23.70;;
9188;SDS011;34313;50.780;6.084;2023-04-07T01:40:00;41.60;;;23.93;;
9188;SDS011;34313;50.780;6.084;2023-04-07T01:42:26;42.63;;;24.73;;
9188;SDS011;34313;50.780;6.084;2023-04-07T01:44:52;42.80;;;24.00;;
9188;SDS011;34313;50.780;6.084;2023-04-07T01:47:18;38.87;;;21.80;;
9188;SDS011;34313;50.780;6.084;2023-04-07T01:49:44;41.33;;;23.20;;
9188;SDS011;34313;50.780;6.084;2023-04-07T01:52:11;36.43;;;21.97;;
9188;SDS011;34313;50.780;6.084;2023-04-07T01:54:37;42.37;;;21.77;;
9188;SDS011;34313;50.780;6.084;2023-04-07T01:57:03;41.80;;;22.77;;
9188;SDS011;34313;50.780;6.084;2023-04-07T01:59:29;43.50;;;24.17;;
9188;SDS011;34313;50.780;6.084;2023-04-07T02:01:54;34.50;;;21.70;;
9188;SDS011;34313;50.780;6.084;2023-04-07T02:07:12;39.07;;;22.40;;
9188;SDS011;34313;50.780;6.084;2023-04-07T02:09:43;37.60;;;22.97;;
9188;SDS011;34313;50.780;6.084;2023-04-07T02:12:11;41.63;;;23.67;;
9188;SDS011;34313;50.780;6.084;2023-04-07T02:14:38;43.17;;;22.53;;
9188;SDS011;34313;50.780;6.084;2023-04-07T02:17:04;47.10;;;22.00;;
9188;SDS011;34313;50.780;6.084;2023-04-07T02:19:31;36.90;;;22.33;;
9188;SDS011;34313;50.780;6.084;2023-04-07T02:21:58;34.27;;;19.80;;
9188;SDS011;34313;50.780;6.084;2023-04-07T02:24:25;39.13;;;20.70;;
9188;SDS011;34313;50.780;6.084;2023-04-07T02:26:50;35.40;;;20.50;;
9188;SDS011;34313;50.780;6.084;2023-04-07T02:29:16;32.03;;;20.40;;
9188;SDS011;34313;50.780;6.084;2023-04-07T02:31:41;36.60;;;20.90;;
9188;SDS011;34313;50.780;6.084;2023-04-07T02:34:06;38.10;;;20.80;;
9188;SDS011;34313;50.780;6.084;2023-04-07T02:36:31;36.10;;;19.43;;
9188;SDS011;34313;50.780;6.084;2023-04-07T02:38:57;30.93;;;18.00;;
9188;SDS011;34313;50.780;6.084;2023-04-07T02:41:22;35.90;;;20.33;;
9188;SDS011;34313;50.780;6.084;2023-04-07T02:43:48;33.10;;;19.20;;
9188;SDS011;34313;50.780;6.084;2023-04-07T02:46:13;34.50;;;19.17;;
9188;SDS011;34313;50.780;6.084;2023-04-07T02:48:38;32.93;;;19.00;;
9188;SDS011;34313;50.780;6.084;2023-04-07T02:51:04;36.23;;;19.63;;
9188;SDS011;34313;50.780;6.084;2023-04-07T02:53:29;30.10;;;19.13;;
9188;SDS011;34313;50.780;6.084;2023-04-07T02:55:55;26.90;;;17.57;;
9188;SDS011;34313;50.780;6.084;2023-04-07T02:58:20;33.30;;;18.70;;
9188;SDS011;34313;50.780;6.084;2023-04-07T03:00:46;32.50;;;18.40;;
9188;SDS011;34313;50.780;6.084;2023-04-07T03:03:12;27.50;;;18.30;;
9188;SDS011;34313;50.780;6.084;2023-04-07T03:05:37;33.73;;;19.90;;
9188;SDS011;34313;50.780;6.084;2023-04-07T03:08:03;28.47;;;18.20;;
9188;SDS011;34313;50.780;6.084;2023-04-07T03:10:28;35.60;;;18.73;;
9188;SDS011;34313;50.780;6.084;2023-04-07T03:12:54;36.07;;;19.87;;
9188;SDS011;34313;50.780;6.084;2023-04-07T03:15:19;33.20;;;19.97;;
9188;SDS011;34313;50.780;6.084;2023-04-07T03:17:45;42.23;;;20.87;;
9188;SDS011;34313;50.780;6.084;2023-04-07T03:20:10;37.07;;;20.80;;
9188;SDS011;34313;50.780;6.084;2023-04-07T03:22:36;37.20;;;20.60;;
9188;SDS011;34313;50.780;6.084;2023-04-07T03:25:01;38.30;;;20.40;;
9188;SDS011;34313;50.780;6.084;2023-04-07T03:27:26;34.10;;;21.13;;
9188;SDS011;34313;50.780;6.084;2023-04-07T03:29:52;39.00;;;20.83;;
9188;SDS011;34313;50.780;6.084;2023-04-07T03:32:17;34.70;;;21.00;;
9188;SDS011;34313;50.780;6.084;2023-04-07T03:34:43;34.20;;;20.70;;
9188;SDS011;34313;50.780;6.084;2023-04-07T03:37:08;35.80;;;20.17;;
9188;SDS011;34313;50.780;6.084;2023-04-07T03:39:33;38.10;;;20.97;;
9188;SDS011;34313;50.780;6.084;2023-04-07T03:42:01;38.83;;;20.87;;
9188;SDS011;34313;50.780;6.084;2023-04-07T03:44:27;39.20;;;21.33;;
9188;SDS011;34313;50.780;6.084;2023-04-07T03:46:52;37.63;;;19.40;;
9188;SDS011;34313;50.780;6.084;2023-04-07T03:49:17;38.57;;;22.70;;
9188;SDS011;34313;50.780;6.084;2023-04-07T03:51:43;45.50;;;23.07;;
9188;SDS011;34313;50.780;6.084;2023-04-07T03:54:08;40.40;;;21.40;;
9188;SDS011;34313;50.780;6.084;2023-04-07T03:56:34;49.10;;;23.70;;
9188;SDS011;34313;50.780;6.084;2023-04-07T03:58:59;42.10;;;23.90;;
9188;SDS011;34313;50.780;6.084;2023-04-07T04:01:25;44.17;;;24.57;;
9188;SDS011;34313;50.780;6.084;2023-04-07T04:03:50;38.60;;;22.87;;
9188;SDS011;34313;50.780;6.084;2023-04-07T04:06:15;45.17;;;24.70;;
9188;SDS011;34313;50.780;6.084;2023-04-07T04:08:41;51.70;;;24.67;;
9188;SDS011;34313;50.780;6.084;2023-04-07T04:11:06;43.17;;;23.80;;
9188;SDS011;34313;50.780;6.084;2023-04-07T04:13:31;46.90;;;23.47;;
9188;SDS011;34313;50.780;6.084;2023-04-07T04:15:56;39.83;;;23.80;;
9188;SDS011;34313;50.780;6.084;2023-04-07T04:18:22;43.80;;;24.77;;
9188;SDS011;34313;50.780;6.084;2023-04-07T04:20:47;47.47;;;23.73;;
9188;SDS011;34313;50.780;6.084;2023-04-07T04:23:12;53.47;;;26.83;;
9188;SDS011;34313;50.780;6.084;2023-04-07T04:25:38;44.00;;;25.73;;
9188;SDS011;34313;50.780;6.084;2023-04-07T04:28:04;44.70;;;24.13;;
9188;SDS011;34313;50.780;6.084;2023-04-07T04:30:30;48.50;;;26.53;;
9188;SDS011;34313;50.780;6.084;2023-04-07T04:32:55;51.60;;;25.60;;
9188;SDS011;34313;50.780;6.084;2023-04-07T04:35:21;50.17;;;26.47;;
9188;SDS011;34313;50.780;6.084;2023-04-07T04:37:46;54.50;;;25.73;;
9188;SDS011;34313;50.780;6.084;2023-04-07T04:40:12;46.63;;;25.07;;
9188;SDS011;34313;50.780;6.084;2023-04-07T04:42:38;52.33;;;25.87;;
9188;SDS011;34313;50.780;6.084;2023-04-07T04:45:04;44.23;;;24.87;;
9188;SDS011;34313;50.780;6.084;2023-04-07T04:47:29;49.77;;;26.07;;
9188;SDS011;34313;50.780;6.084;2023-04-07T04:49:55;51.70;;;26.57;;
9188;SDS011;34313;50.780;6.084;2023-04-07T04:52:20;50.70;;;27.23;;
9188;SDS011;34313;50.780;6.084;2023-04-07T04:54:46;46.40;;;25.67;;
9188;SDS011;34313;50.780;6.084;2023-04-07T04:57:11;52.03;;;27.43;;
9188;SDS011;34313;50.780;6.084;2023-04-07T04:59:36;50.43;;;26.57;;
9188;SDS011;34313;50.780;6.084;2023-04-07T05:02:03;55.97;;;26.73;;
9188;SDS011;34313;50.780;6.084;2023-04-07T05:04:29;46.37;;;26.13;;
9188;SDS011;34313;50.780;6.084;2023-04-07T05:06:54;50.70;;;26.43;;
9188;SDS011;34313;50.780;6.084;2023-04-07T05:09:20;44.00;;;25.70;;
9188;SDS011;34313;50.780;6.084;2023-04-07T05:11:45;42.87;;;24.03;;
9188;SDS011;34313;50.780;6.084;2023-04-07T05:14:10;42.90;;;24.50;;
9188;SDS011;34313;50.780;6.084;2023-04-07T05:16:36;49.30;;;25.83;;
9188;SDS011;34313;50.780;6.084;2023-04-07T05:19:01;43.43;;;24.17;;
9188;SDS011;34313;50.780;6.084;2023-04-07T05:21:26;53.30;;;24.73;;
9188;SDS011;34313;50.780;6.084;2023-04-07T05:23:52;40.03;;;22.60;;
9188;SDS011;34313;50.780;6.084;2023-04-07T05:26:17;38.10;;;22.93;;
9188;SDS011;34313;50.780;6.084;2023-04-07T05:28:43;45.77;;;22.20;;
9188;SDS011;34313;50.780;6.084;2023-04-07T05:31:08;48.43;;;22.53;;
9188;SDS011;34313;50.780;6.084;2023-04-07T05:33:34;38.37;;;21.80;;
9188;SDS011;34313;50.780;6.084;2023-04-07T05:35:59;47.47;;;23.33;;
9188;SDS011;34313;50.780;6.084;2023-04-07T05:38:24;38.20;;;22.60;;
9188;SDS011;34313;50.780;6.084;2023-04-07T05:40:50;42.77;;;23.60;;
9188;SDS011;34313;50.780;6.084;2023-04-07T05:43:15;43.63;;;22.53;;
9188;SDS011;34313;50.780;6.084;2023-04-07T05:45:41;44.83;;;22.73;;
9188;SDS011;34313;50.780;6.084;2023-04-07T05:48:06;48.00;;;22.70;;
9188;SDS011;34313;50.780;6.084;2023-04-07T05:50:31;47.40;;;23.83;;
9188;SDS011;34313;50.780;6.084;2023-04-07T05:52:57;39.93;;;22.93;;
9188;SDS011;34313;50.780;6.084;2023-04-07T05:55:22;36.93;;;21.77;;
9188;SDS011;34313;50.780;6.084;2023-04-07T05:57:47;39.10;;;21.87;;
9188;SDS011;34313;50.780;6.084;2023-04-07T06:00:13;42.80;;;21.60;;
9188;SDS011;34313;50.780;6.084;2023-04-07T06:02:39;39.00;;;20.33;;
9188;SDS011;34313;50.780;6.084;2023-04-07T06:05:05;31.20;;;19.30;;
9188;SDS011;34313;50.780;6.084;2023-04-07T06:07:31;31.17;;;17.97;;
9188;SDS011;34313;50.780;6.084;2023-04-07T06:09:56;30.17;;;16.50;;
9188;SDS011;34313;50.780;6.084;2023-04-07T06:12:22;29.17;;;17.47;;
9188;SDS011;34313;50.780;6.084;2023-04-07T06:14:51;29.90;;;15.83;;
9188;SDS011;34313;50.780;6.084;2023-04-07T06:17:17;29.57;;;15.47;;
9188;SDS011;34313;50.780;6.084;2023-04-07T06:19:43;35.27;;;16.90;;
9188;SDS011;34313;50.780;6.084;2023-04-07T06:22:08;29.87;;;15.30;;
9188;SDS011;34313;50.780;6.084;2023-04-07T06:24:33;29.90;;;16.40;;
9188;SDS011;34313;50.780;6.084;2023-04-07T06:26:59;27.97;;;16.30;;
9188;SDS011;34313;50.780;6.084;2023-04-07T06:29:25;31.57;;;15.63;;
9188;SDS011;34313;50.780;6.084;2023-04-07T06:31:52;25.67;;;14.10;;
9188;SDS011;34313;50.780;6.084;2023-04-07T06:34:17;30.47;;;14.67;;
9188;SDS011;34313;50.780;6.084;2023-04-07T06:36:42;25.97;;;14.77;;
9188;SDS011;34313;50.780;6.084;2023-04-07T06:39:08;22.03;;;13.33;;
9188;SDS011;34313;50.780;6.084;2023-04-07T06:41:33;28.97;;;13.70;;
9188;SDS011;34313;50.780;6.084;2023-04-07T06:43:58;19.97;;;13.40;;
9188;SDS011;34313;50.780;6.084;2023-04-07T06:46:24;19.53;;;12.63;;
9188;SDS011;34313;50.780;6.084;2023-04-07T06:48:50;22.23;;;12.23;;
9188;SDS011;34313;50.780;6.084;2023-04-07T06:51:15;20.57;;;12.07;;
9188;SDS011;34313;50.780;6.084;2023-04-07T06:53:41;20.53;;;11.70;;
9188;SDS011;34313;50.780;6.084;2023-04-07T06:56:08;18.13;;;11.33;;
9188;SDS011;34313;50.780;6.084;2023-04-07T06:58:35;19.77;;;11.37;;
9188;SDS011;34313;50.780;6.084;2023-04-07T07:01:01;20.77;;;10.87;;
9188;SDS011;34313;50.780;6.084;2023-04-07T07:03:28;18.60;;;11.03;;
9188;SDS011;34313;50.780;6.084;2023-04-07T07:05:54;16.40;;;10.50;;
9188;SDS011;34313;50.780;6.084;2023-04-07T07:08:22;15.43;;;9.43;;
9188;SDS011;34313;50.780;6.084;2023-04-07T07:10:48;17.93;;;10.90;;
9188;SDS011;34313;50.780;6.084;2023-04-07T07:13:13;17.23;;;9.60;;
9188;SDS011;34313;50.780;6.084;2023-04-07T07:15:38;17.33;;;9.37;;
9188;SDS011;34313;50.780;6.084;2023-04-07T07:18:04;18.10;;;10.13;;
9188;SDS011;34313;50.780;6.084;2023-04-07T07:20:29;15.90;;;9.73;;
9188;SDS011;34313;50.780;6.084;2023-04-07T07:22:55;15.37;;;9.70;;
9188;SDS011;34313;50.780;6.084;2023-04-07T07:25:20;16.70;;;10.10;;
9188;SDS011;34313;50.780;6.084;2023-04-07T07:27:46;16.03;;;10.07;;
9188;SDS011;34313;50.780;6.084;2023-04-07T07:30:11;20.90;;;9.73;;
9188;SDS011;34313;50.780;6.084;2023-04-07T07:32:37;15.27;;;10.00;;
9188;SDS011;34313;50.780;6.084;2023-04-07T07:35:02;25.10;;;11.53;;
9188;SDS011;34313;50.780;6.084;2023-04-07T07:37:28;25.57;;;11.40;;
9188;SDS011;34313;50.780;6.084;2023-04-07T07:39:53;21.07;;;11.27;;
9188;SDS011;34313;50.780;6.084;2023-04-07T07:42:18;17.53;;;12.03;;
9188;SDS011;34313;50.780;6.084;2023-04-07T07:44:44;25.00;;;11.43;;
9188;SDS011;34313;50.780;6.084;2023-04-07T07:47:09;19.27;;;11.10;;
9188;SDS011;34313;50.780;6.084;2023-04-07T07:49:36;19.20;;;11.40;;
9188;SDS011;34313;50.780;6.084;2023-04-07T07:52:01;20.77;;;11.30;;
9188;SDS011;34313;50.780;6.084;2023-04-07T07:54:27;19.23;;;11.00;;
9188;SDS011;34313;50.780;6.084;2023-04-07T07:56:52;16.07;;;9.10;;
9188;SDS011;34313;50.780;6.084;2023-04-07T07:59:18;17.27;;;10.87;;
9188;SDS011;34313;50.780;6.084;2023-04-07T08:01:43;18.40;;;10.40;;
9188;SDS011;34313;50.780;6.084;2023-04-07T08:04:08;17.50;;;10.73;;
9188;SDS011;34313;50.780;6.084;2023-04-07T08:06:33;16.83;;;10.60;;
9188;SDS011;34313;50.780;6.084;2023-04-07T08:09:00;16.63;;;9.93;;
9188;SDS011;34313;50.780;6.084;2023-04-07T08:11:25;18.60;;;9.70;;
9188;SDS011;34313;50.780;6.084;2023-04-07T08:13:51;13.93;;;8.47;;
9188;SDS011;34313;50.780;6.084;2023-04-07T08:16:17;13.07;;;8.60;;
9188;SDS011;34313;50.780;6.084;2023-04-07T08:18:44;14.33;;;8.90;;
9188;SDS011;34313;50.780;6.084;2023-04-07T08:21:10;20.10;;;9.00;;
9188;SDS011;34313;50.780;6.084;2023-04-07T08:23:36;15.20;;;9.10;;
9188;SDS011;34313;50.780;6.084;2023-04-07T08:26:02;21.70;;;10.87;;
9188;SDS011;34313;50.780;6.084;2023-04-07T08:28:27;19.27;;;10.53;;
9188;SDS011;34313;50.780;6.084;2023-04-07T08:30:52;20.43;;;10.57;;
9188;SDS011;34313;50.780;6.084;2023-04-07T08:33:18;22.90;;;10.47;;
9188;SDS011;34313;50.780;6.084;2023-04-07T08:35:43;20.87;;;9.77;;
9188;SDS011;34313;50.780;6.084;2023-04-07T08:38:08;17.13;;;10.40;;
9188;SDS011;34313;50.780;6.084;2023-04-07T08:40:33;19.60;;;9.53;;
9188;SDS011;34313;50.780;6.084;2023-04-07T08:42:59;20.13;;;10.20;;
9188;SDS011;34313;50.780;6.084;2023-04-07T08:45:25;16.73;;;8.10;;
9188;SDS011;34313;50.780;6.084;2023-04-07T08:47:53;17.20;;;8.40;;
9188;SDS011;34313;50.780;6.084;2023-04-07T08:50:22;20.70;;;8.77;;
9188;SDS011;34313;50.780;6.084;2023-04-07T08:52:55;12.60;;;9.23;;
9188;SDS011;34313;50.780;6.084;2023-04-07T08:55:21;19.07;;;8.80;;
9188;SDS011;34313;50.780;6.084;2023-04-07T08:57:47;15.60;;;9.37;;
9188;SDS011;34313;50.780;6.084;2023-04-07T09:00:13;17.23;;;10.13;;
9188;SDS011;34313;50.780;6.084;2023-04-07T09:02:40;19.13;;;9.97;;
9188;SDS011;34313;50.780;6.084;2023-04-07T09:05:09;16.83;;;9.97;;
9188;SDS011;34313;50.780;6.084;2023-04-07T09:07:37;20.67;;;9.40;;
9188;SDS011;34313;50.780;6.084;2023-04-07T09:10:04;11.20;;;7.80;;
9188;SDS011;34313;50.780;6.084;2023-04-07T09:12:31;11.03;;;7.70;;
9188;SDS011;34313;50.780;6.084;2023-04-07T09:14:57;15.80;;;7.57;;
9188;SDS011;34313;50.780;6.084;2023-04-07T09:17:23;13.73;;;8.90;;
9188;SDS011;34313;50.780;6.084;2023-04-07T09:19:55;15.63;;;8.13;;
9188;SDS011;34313;50.780;6.084;2023-04-07T09:30:19;11.43;;;7.07;;
9188;SDS011;34313;50.780;6.084;2023-04-07T09:32:45;14.73;;;7.57;;
9188;SDS011;34313;50.780;6.084;2023-04-07T09:35:10;11.43;;;7.07;;
9188;SDS011;34313;50.780;6.084;2023-04-07T09:37:35;15.00;;;8.10;;
9188;SDS011;34313;50.780;6.084;2023-04-07T09:40:01;12.13;;;8.53;;
9188;SDS011;34313;50.780;6.084;2023-04-07T09:42:27;13.47;;;8.53;;
9188;SDS011;34313;50.780;6.084;2023-04-07T09:44:57;13.77;;;8.10;;
9188;SDS011;34313;50.780;6.084;2023-04-07T09:47:28;12.10;;;7.40;;
9188;SDS011;34313;50.780;6.084;2023-04-07T09:49:56;10.53;;;6.47;;
9188;SDS011;34313;50.780;6.084;2023-04-07T09:55:15;9.97;;;6.70;;
9188;SDS011;34313;50.780;6.084;2023-04-07T09:57:44;5.70;;;4.30;;
9188;SDS011;34313;50.780;6.084;2023-04-07T10:00:09;6.10;;;4.40;;
9188;SDS011;34313;50.780;6.084;2023-04-07T10:02:36;8.60;;;5.73;;
9188;SDS011;34313;50.780;6.084;2023-04-07T10:05:02;6.97;;;5.10;;
9188;SDS011;34313;50.780;6.084;2023-04-07T10:07:27;9.60;;;6.53;;
9188;SDS011;34313;50.780;6.084;2023-04-07T10:09:53;14.00;;;6.83;;
9188;SDS011;34313;50.780;6.084;2023-04-07T10:12:18;11.20;;;7.23;;
9188;SDS011;34313;50.780;6.084;2023-04-07T10:14:43;8.60;;;6.70;;
9188;SDS011;34313;50.780;6.084;2023-04-07T10:17:11;8.53;;;6.47;;
9188;SDS011;34313;50.780;6.084;2023-04-07T10:19:42;9.10;;;6.50;;
9188;SDS011;34313;50.780;6.084;2023-04-07T10:22:09;11.93;;;7.00;;
9188;SDS011;34313;50.780;6.084;2023-04-07T10:27:42;15.77;;;7.77;;
9188;SDS011;34313;50.780;6.084;2023-04-07T10:30:16;12.93;;;6.90;;
9188;SDS011;34313;50.780;6.084;2023-04-07T10:32:48;9.70;;;6.37;;
9188;SDS011;34313;50.780;6.084;2023-04-07T10:35:14;8.00;;;6.27;;
9188;SDS011;34313;50.780;6.084;2023-04-07T10:37:42;8.90;;;5.47;;
9188;SDS011;34313;50.780;6.084;2023-04-07T10:40:32;9.00;;;5.10;;
9188;SDS011;34313;50.780;6.084;2023-04-07T10:42:58;8.77;;;4.80;;
9188;SDS011;34313;50.780;6.084;2023-04-07T10:48:19;7.70;;;5.20;;
9188;SDS011;34313;50.780;6.084;2023-04-07T10:50:46;8.00;;;6.00;;
9188;SDS011;34313;50.780;6.084;2023-04-07T10:53:32;9.03;;;6.00;;
9188;SDS011;34313;50.780;6.084;2023-04-07T10:55:58;7.60;;;4.83;;
9188;SDS011;34313;50.780;6.084;2023-04-07T10:58:25;9.37;;;5.97;;
9188;SDS011;34313;50.780;6.084;2023-04-07T11:03:36;9.20;;;5.80;;
9188;SDS011;34313;50.780;6.084;2023-04-07T11:06:18;8.17;;;6.07;;
9188;SDS011;34313;50.780;6.084;2023-04-07T11:08:44;12.50;;;6.80;;
9188;SDS011;34313;50.780;6.084;2023-04-07T11:11:11;12.13;;;6.30;;
9188;SDS011;34313;50.780;6.084;2023-04-07T11:13:42;9.90;;;6.80;;
9188;SDS011;34313;50.780;6.084;2023-04-07T11:16:10;16.00;;;6.93;;
9188;SDS011;34313;50.780;6.084;2023-04-07T11:18:36;13.67;;;7.40;;
9188;SDS011;34313;50.780;6.084;2023-04-07T11:21:01;15.27;;;7.17;;
9188;SDS011;34313;50.780;6.084;2023-04-07T11:23:29;7.70;;;6.00;;
9188;SDS011;34313;50.780;6.084;2023-04-07T11:26:02;8.33;;;6.40;;
9188;SDS011;34313;50.780;6.084;2023-04-07T11:28:28;7.87;;;6.00;;
9188;SDS011;34313;50.780;6.084;2023-04-07T11:30:54;10.60;;;6.37;;
9188;SDS011;34313;50.780;6.084;2023-04-07T11:33:23;9.77;;;5.73;;
9188;SDS011;34313;50.780;6.084;2023-04-07T11:35:56;10.33;;;6.50;;
9188;SDS011;34313;50.780;6.084;2023-04-07T11:38:29;12.70;;;6.67;;
9188;SDS011;34313;50.780;6.084;2023-04-07T11:41:08;8.27;;;5.20;;
9188;SDS011;34313;50.780;6.084;2023-04-07T11:43:40;9.00;;;5.60;;
9188;SDS011;34313;50.780;6.084;2023-04-07T11:46:15;8.33;;;5.83;;
9188;SDS011;34313;50.780;6.084;2023-04-07T11:48:43;6.70;;;5.57;;
9188;SDS011;34313;50.780;6.084;2023-04-07T11:51:19;7.10;;;6.03;;
9188;SDS011;34313;50.780;6.084;2023-04-07T11:53:52;6.07;;;5.17;;
9188;SDS011;34313;50.780;6.084;2023-04-07T11:56:19;7.80;;;5.20;;
9188;SDS011;34313;50.780;6.084;2023-04-07T11:58:50;7.67;;;5.13;;
9188;SDS011;34313;50.780;6.084;2023-04-07T12:01:17;8.40;;;5.57;;
9188;SDS011;34313;50.780;6.084;2023-04-07T12:03:59;12.77;;;6.00;;
9188;SDS011;34313;50.780;6.084;2023-04-07T12:06:29;10.83;;;7.20;;
9188;SDS011;34313;50.780;6.084;2023-04-07T12:08:58;9.27;;;6.27;;
9188;SDS011;34313;50.780;6.084;2023-04-07T12:11:24;9.63;;;6.90;;
9188;SDS011;34313;50.780;6.084;2023-04-07T12:13:50;14.27;;;6.37;;
9188;SDS011;34313;50.780;6.084;2023-04-07T12:16:16;10.37;;;6.97;;
9188;SDS011;34313;50.780;6.084;2023-04-07T12:18:42;8.60;;;6.77;;
9188;SDS011;34313;50.780;6.084;2023-04-07T12:21:07;12.47;;;6.60;;
9188;SDS011;34313;50.780;6.084;2023-04-07T12:23:33;10.50;;;6.30;;
9188;SDS011;34313;50.780;6.084;2023-04-07T12:25:58;12.67;;;6.60;;
9188;SDS011;34313;50.780;6.084;2023-04-07T12:28:23;13.27;;;7.70;;
9188;SDS011;34313;50.780;6.084;2023-04-07T12:30:49;10.67;;;7.03;;
9188;SDS011;34313;50.780;6.084;2023-04-07T12:33:14;12.93;;;7.37;;
9188;SDS011;34313;50.780;6.084;2023-04-07T12:35:39;16.63;;;8.57;;
9188;SDS011;34313;50.780;6.084;2023-04-07T12:38:05;11.53;;;8.07;;
9188;SDS011;34313;50.780;6.084;2023-04-07T12:40:30;12.80;;;7.90;;
9188;SDS011;34313;50.780;6.084;2023-04-07T12:42:56;15.63;;;8.50;;
9188;SDS011;34313;50.780;6.084;2023-04-07T12:45:22;10.30;;;7.90;;
9188;SDS011;34313;50.780;6.084;2023-04-07T12:47:53;15.97;;;8.67;;
9188;SDS011;34313;50.780;6.084;2023-04-07T12:50:18;10.23;;;7.50;;
9188;SDS011;34313;50.780;6.084;2023-04-07T12:52:44;11.20;;;7.50;;
9188;SDS011;34313;50.780;6.084;2023-04-07T12:55:10;10.30;;;6.90;;
9188;SDS011;34313;50.780;6.084;2023-04-07T12:57:35;12.93;;;7.30;;
9188;SDS011;34313;50.780;6.084;2023-04-07T13:00:01;8.87;;;6.90;;
9188;SDS011;34313;50.780;6.084;2023-04-07T13:02:27;10.23;;;6.93;;
9188;SDS011;34313;50.780;6.084;2023-04-07T13:04:52;9.07;;;7.67;;
9188;SDS011;34313;50.780;6.084;2023-04-07T13:07:18;11.53;;;7.50;;
9188;SDS011;34313;50.780;6.084;2023-04-07T13:09:43;9.43;;;7.33;;
9188;SDS011;34313;50.780;6.084;2023-04-07T13:12:09;8.60;;;7.10;;
9188;SDS011;34313;50.780;6.084;2023-04-07T13:14:36;11.33;;;8.00;;
9188;SDS011;34313;50.780;6.084;2023-04-07T13:17:06;11.00;;;8.53;;
9188;SDS011;34313;50.780;6.084;2023-04-07T13:19:32;11.50;;;8.27;;
9188;SDS011;34313;50.780;6.084;2023-04-07T13:21:58;11.37;;;9.17;;
9188;SDS011;34313;50.780;6.084;2023-04-07T13:24:23;12.40;;;8.37;;
9188;SDS011;34313;50.780;6.084;2023-04-07T13:26:49;14.17;;;8.73;;
9188;SDS011;34313;50.780;6.084;2023-04-07T13:29:16;13.43;;;9.97;;
9188;SDS011;34313;50.780;6.084;2023-04-07T13:31:41;8.80;;;7.77;;
9188;SDS011;34313;50.780;6.084;2023-04-07T13:34:09;9.60;;;8.20;;
9188;SDS011;34313;50.780;6.084;2023-04-07T13:36:34;11.63;;;8.23;;
9188;SDS011;34313;50.780;6.084;2023-04-07T13:38:59;8.17;;;7.33;;
9188;SDS011;34313;50.780;6.084;2023-04-07T13:41:26;11.87;;;8.90;;
9188;SDS011;34313;50.780;6.084;2023-04-07T13:43:51;12.83;;;8.90;;
9188;SDS011;34313;50.780;6.084;2023-04-07T13:46:16;8.67;;;7.37;;
9188;SDS011;34313;50.780;6.084;2023-04-07T13:48:45;9.13;;;7.63;;
9188;SDS011;34313;50.780;6.084;2023-04-07T13:51:10;10.23;;;7.53;;
9188;SDS011;34313;50.780;6.084;2023-04-07T13:53:36;9.90;;;7.63;;
9188;SDS011;34313;50.780;6.084;2023-04-07T13:56:01;11.63;;;6.97;;
9188;SDS011;34313;50.780;6.084;2023-04-07T13:58:28;11.23;;;6.83;;
9188;SDS011;34313;50.780;6.084;2023-04-07T14:00:53;11.40;;;7.70;;
9188;SDS011;34313;50.780;6.084;2023-04-07T14:03:20;9.23;;;6.97;;
9188;SDS011;34313;50.780;6.084;2023-04-07T14:05:46;10.00;;;6.67;;
9188;SDS011;34313;50.780;6.084;2023-04-07T14:08:11;11.80;;;6.90;;
9188;SDS011;34313;50.780;6.084;2023-04-07T14:10:37;9.30;;;7.00;;
9188;SDS011;34313;50.780;6.084;2023-04-07T14:13:03;9.17;;;7.10;;
9188;SDS011;34313;50.780;6.084;2023-04-07T14:15:28;9.93;;;6.13;;
9188;SDS011;34313;50.780;6.084;2023-04-07T14:17:54;9.20;;;7.47;;
9188;SDS011;34313;50.780;6.084;2023-04-07T14:20:22;11.83;;;7.87;;
9188;SDS011;34313;50.780;6.084;2023-04-07T14:22:48;10.67;;;7.23;;
9188;SDS011;34313;50.780;6.084;2023-04-07T14:25:13;16.00;;;8.93;;
9188;SDS011;34313;50.780;6.084;2023-04-07T14:27:38;11.87;;;8.27;;
9188;SDS011;34313;50.780;6.084;2023-04-07T14:30:04;13.47;;;7.87;;
9188;SDS011;34313;50.780;6.084;2023-04-07T14:32:30;11.87;;;8.30;;
9188;SDS011;34313;50.780;6.084;2023-04-07T14:34:57;11.23;;;7.67;;
9188;SDS011;34313;50.780;6.084;2023-04-07T14:37:23;9.67;;;8.47;;
9188;SDS011;34313;50.780;6.084;2023-04-07T14:39:50;15.90;;;8.97;;
9188;SDS011;34313;50.780;6.084;2023-04-07T14:42:17;11.57;;;9.50;;
9188;SDS011;34313;50.780;6.084;2023-04-07T14:44:43;12.40;;;8.60;;
9188;SDS011;34313;50.780;6.084;2023-04-07T14:47:08;10.73;;;9.13;;
9188;SDS011;34313;50.780;6.084;2023-04-07T14:49:33;15.00;;;9.33;;
9188;SDS011;34313;50.780;6.084;2023-04-07T14:51:58;16.27;;;9.37;;
9188;SDS011;34313;50.780;6.084;2023-04-07T14:54:24;13.80;;;9.40;;
9188;SDS011;34313;50.780;6.084;2023-04-07T14:56:49;15.40;;;9.20;;
9188;SDS011;34313;50.780;6.084;2023-04-07T14:59:15;15.67;;;9.80;;
9188;SDS011;34313;50.780;6.084;2023-04-07T15:01:40;13.40;;;9.43;;
9188;SDS011;34313;50.780;6.084;2023-04-07T15:04:05;17.93;;;9.93;;
9188;SDS011;34313;50.780;6.084;2023-04-07T15:06:31;15.20;;;9.63;;
9188;SDS011;34313;50.780;6.084;2023-04-07T15:08:56;20.10;;;10.37;;
9188;SDS011;34313;50.780;6.084;2023-04-07T15:11:21;13.70;;;9.00;;